Time;durP1;ratioP1;P1;durP2;ratioP2;P2;SDS_P1;SDS_P2;PMS_P1;PMS_P2;Temp;Humidity;BMP_temperature;BMP_pressure;BME280_temperature;BME280_humidity;BME280_pressure;Samples;Min_cycle;Max_cycle;Signal;HPM_P1;HPM_P2
2022/10/29 00:02:04;;;;;;;508.67;11.90;;;14.00;99.90;;;;;;4961464;28;20046;-64
2022/10/29 00:04:29;;;;;;;587.08;13.50;;;13.70;99.90;;;;;;4969857;28;20125;-63
2022/10/29 00:06:55;;;;;;;629.90;15.25;;;13.60;99.90;;;;;;4972668;28;20205;-64
2022/10/29 00:09:20;;;;;;;571.53;16.08;;;15.00;99.90;;;;;;4971774;28;20049;-63
2022/10/29 00:11:46;;;;;;;477.52;13.15;;;13.50;99.90;;;;;;4968312;28;20117;-63
2022/10/29 00:14:11;;;;;;;529.65;15.10;;;13.70;99.90;;;;;;4966239;28;20112;-63
2022/10/29 00:16:38;;;;;;;413.55;9.05;;;14.50;99.90;;;;;;4969901;28;20497;-63
2022/10/29 00:19:04;;;;;;;417.88;10.13;;;14.60;99.90;;;;;;4968058;28;20087;-63
2022/10/29 00:21:30;;;;;;;569.30;15.85;;;14.90;99.90;;;;;;4969830;28;20039;-63
2022/10/29 00:23:57;;;;;;;502.63;13.98;;;14.40;99.90;;;;;;4969046;28;20054;-63
2022/10/29 00:26:24;;;;;;;334.25;10.00;;;14.80;99.90;;;;;;4944149;28;20104;-63
2022/10/29 00:28:54;;;;;;;176.13;6.60;;;14.20;99.90;;;;;;4949731;28;20042;-63
2022/10/29 00:31:23;;;;;;;139.38;4.35;;;14.60;99.90;;;;;;4960158;28;20493;-63
2022/10/29 00:33:49;;;;;;;218.15;5.82;;;14.10;99.90;;;;;;4967478;28;20058;-63
2022/10/29 00:36:18;;;;;;;277.88;5.88;;;13.60;99.90;;;;;;4972172;28;20109;-63
2022/10/29 00:38:44;;;;;;;222.10;6.13;;;13.30;99.90;;;;;;4966768;28;20037;-64
2022/10/29 00:41:13;;;;;;;277.05;8.10;;;13.10;99.90;;;;;;4972579;28;20134;-64
2022/10/29 00:43:42;;;;;;;204.30;4.50;;;12.90;99.90;;;;;;4976141;28;20125;-63
2022/10/29 00:46:12;;;;;;;218.07;6.82;;;13.10;99.90;;;;;;4974268;28;20077;-63
2022/10/29 00:48:48;;;;;;;101.03;4.47;;;14.40;99.90;;;;;;4964873;28;20068;-63
2022/10/29 00:51:15;;;;;;;;;;;13.00;99.90;;;;;;4965903;28;20431;-63
2022/10/29 00:53:44;;;;;;;216.73;5.35;;;13.00;99.90;;;;;;4947953;28;19925;-64
2022/10/29 00:56:11;;;;;;;131.93;5.68;;;12.90;99.90;;;;;;4965573;28;20042;-63
2022/10/29 00:58:37;;;;;;;206.80;5.30;;;13.00;99.90;;;;;;4942040;28;20382;-63
2022/10/29 01:01:02;;;;;;;188.55;5.75;;;14.60;99.90;;;;;;4958207;28;20046;-63
2022/10/29 01:03:28;;;;;;;169.02;6.10;;;13.40;99.90;;;;;;4958108;28;20371;-63
2022/10/29 01:05:54;;;;;;;134.68;5.63;;;13.80;99.90;;;;;;4975584;28;20453;-63
2022/10/29 01:08:20;;;;;;;182.35;5.75;;;14.40;99.90;;;;;;4974717;28;20516;-63
2022/10/29 01:11:43;;;;;;;216.20;7.43;;;14.20;99.90;;;;;;4973180;28;20035;-63
2022/10/29 01:14:24;;;;;;;264.10;6.63;;;14.90;99.90;;;;;;4896667;29;20044;-63
2022/10/29 01:17:11;;;;;;;344.52;7.90;;;13.60;99.90;;;;;;4896492;29;20071;-63
2022/10/29 01:20:17;;;;;;;393.88;8.27;;;14.00;99.90;;;;;;4955868;28;20571;-63
2022/10/29 01:23:05;;;;;;;191.95;6.40;;;13.30;99.90;;;;;;4952246;28;20062;-63
2022/10/29 01:25:47;;;;;;;226.90;6.68;;;13.70;99.90;;;;;;4974932;28;20066;-64
2022/10/29 01:28:40;;;;;;;266.45;6.95;;;13.80;99.90;;;;;;4954569;28;20061;-64
2022/10/29 01:31:29;;;;;;;317.70;8.10;;;13.90;99.90;;;;;;4973507;28;20069;-64
2022/10/29 01:34:22;;;;;;;281.13;9.60;;;15.00;99.90;;;;;;4968403;28;20045;-63
2022/10/29 01:37:07;;;;;;;355.35;8.73;;;13.60;99.90;;;;;;4967130;28;20070;-63
2022/10/29 01:39:45;;;;;;;565.47;12.02;;;13.90;99.90;;;;;;4966297;28;20051;-63
2022/10/29 01:42:23;;;;;;;412.48;11.57;;;14.80;99.90;;;;;;4963121;28;20054;-63
2022/10/29 01:45:06;;;;;;;197.52;6.55;;;14.70;99.90;;;;;;4964128;28;20057;-64
2022/10/29 01:47:39;;;;;;;217.88;5.40;;;12.90;99.90;;;;;;4954757;28;20049;-63
2022/10/29 01:50:09;;;;;;;158.20;5.30;;;14.40;99.90;;;;;;4973876;28;20489;-63
2022/10/29 01:52:37;;;;;;;46.90;3.58;;;14.10;99.90;;;;;;4974556;28;20061;-64
2022/10/29 01:55:03;;;;;;;169.93;5.32;;;12.90;99.90;;;;;;4949436;28;20121;-63
2022/10/29 01:57:34;;;;;;;76.32;3.42;;;13.60;99.90;;;;;;4966819;28;20039;-63
2022/10/29 02:00:07;;;;;;;253.43;6.25;;;12.60;99.90;;;;;;4966337;28;20097;-63
2022/10/29 02:02:57;;;;;;;210.15;5.38;;;12.50;99.90;;;;;;4948934;28;20046;-63
2022/10/29 02:05:38;;;;;;;107.07;3.72;;;13.40;99.90;;;;;;4966454;28;20038;-64
2022/10/29 02:08:43;;;;;;;184.23;5.28;;;14.10;99.90;;;;;;4967075;28;20106;-64
2022/10/29 02:11:26;;;;;;;453.88;9.25;;;13.20;99.90;;;;;;4966941;28;20053;-64
2022/10/29 02:14:03;;;;;;;474.70;10.80;;;14.10;99.90;;;;;;4966946;28;20035;-63
2022/10/29 02:16:30;;;;;;;307.70;6.82;;;13.70;99.90;;;;;;4949468;28;20039;-63
2022/10/29 02:18:56;;;;;;;397.25;9.23;;;12.50;99.90;;;;;;4950620;28;20650;-64
2022/10/29 02:21:22;;;;;;;72.75;3.80;;;12.40;99.90;;;;;;4967169;28;20055;-64
2022/10/29 02:23:48;;;;;;;97.75;4.03;;;14.00;99.90;;;;;;4950463;28;20047;-64
2022/10/29 02:26:14;;;;;;;79.45;4.60;;;13.00;99.90;;;;;;4966828;28;20090;-64
2022/10/29 02:28:40;;;;;;;103.80;4.65;;;12.80;99.90;;;;;;4966814;28;20747;-63
2022/10/29 02:31:06;;;;;;;57.42;3.70;;;12.80;99.90;;;;;;4939131;28;20121;-64
2022/10/29 02:33:31;;;;;;;23.45;3.45;;;12.50;99.90;;;;;;4950199;28;20421;-64
2022/10/29 02:35:57;;;;;;;91.65;5.63;;;13.90;99.90;;;;;;4968014;28;20034;-64
2022/10/29 02:38:22;;;;;;;115.70;6.07;;;13.60;99.90;;;;;;4948878;28;20102;-63
2022/10/29 02:40:48;;;;;;;196.35;9.07;;;13.80;99.90;;;;;;4967481;28;20433;-63
2022/10/29 02:43:13;;;;;;;213.45;9.55;;;12.50;99.90;;;;;;4950050;28;20038;-64
2022/10/29 02:45:39;;;;;;;221.05;9.18;;;13.70;99.90;;;;;;4948252;28;20050;-63
2022/10/29 02:48:05;;;;;;;295.98;9.65;;;12.50;99.90;;;;;;4967149;28;20374;-64
2022/10/29 02:50:30;;;;;;;186.23;7.28;;;12.30;99.90;;;;;;4967040;28;20046;-64
2022/10/29 02:52:56;;;;;;;155.07;5.90;;;13.50;99.90;;;;;;4966823;28;20137;-64
2022/10/29 02:55:21;;;;;;;232.32;7.30;;;12.20;99.90;;;;;;4965835;28;20126;-64
2022/10/29 02:57:47;;;;;;;381.45;10.50;;;12.40;99.90;;;;;;4949628;28;20034;-67
2022/10/29 03:00:13;;;;;;;400.08;10.50;;;13.40;99.90;;;;;;4966445;28;20034;-64
2022/10/29 03:02:39;;;;;;;336.17;9.07;;;12.30;99.90;;;;;;4968198;28;20039;-63
2022/10/29 03:05:05;;;;;;;165.82;5.70;;;12.50;99.90;;;;;;4948484;28;20109;-64
2022/10/29 03:07:37;;;;;;;289.48;9.25;;;13.70;99.90;;;;;;4967173;28;20069;-64
2022/10/29 03:10:06;;;;;;;371.27;12.27;;;12.70;99.90;;;;;;4966703;28;20042;-63
2022/10/29 03:12:32;;;;;;;444.95;11.43;;;12.20;99.90;;;;;;4967146;28;20113;-63
2022/10/29 03:14:58;;;;;;;446.25;11.35;;;13.70;99.90;;;;;;4964068;28;20122;-63
2022/10/29 03:17:24;;;;;;;413.98;11.75;;;13.50;99.90;;;;;;4966743;28;20069;-63
2022/10/29 03:19:49;;;;;;;310.90;9.45;;;12.00;99.90;;;;;;4948187;28;20047;-63
2022/10/29 03:22:15;;;;;;;182.52;8.63;;;13.30;99.90;;;;;;4965496;28;20065;-63
2022/10/29 03:24:40;;;;;;;86.13;6.05;;;11.90;99.90;;;;;;4965623;28;20039;-64
2022/10/29 03:27:06;;;;;;;158.88;7.18;;;13.40;99.90;;;;;;4966828;28;20039;-63
2022/10/29 03:29:31;;;;;;;106.72;6.03;;;12.50;99.90;;;;;;4966138;28;20043;-63
2022/10/29 03:31:57;;;;;;;131.20;6.80;;;13.10;99.90;;;;;;4966515;28;20089;-63
2022/10/29 03:34:23;;;;;;;385.08;10.48;;;12.10;99.90;;;;;;4963850;28;20443;-63
2022/10/29 03:36:48;;;;;;;408.38;11.13;;;13.10;99.90;;;;;;4966528;28;20058;-65
2022/10/29 03:39:14;;;;;;;303.88;9.40;;;11.60;99.90;;;;;;4966330;28;20049;-63
2022/10/29 03:41:39;;;;;;;396.02;10.98;;;13.10;99.90;;;;;;4966636;28;20125;-65
2022/10/29 03:44:05;;;;;;;424.05;10.57;;;13.00;99.90;;;;;;4952217;28;20057;-63
2022/10/29 03:46:31;;;;;;;316.83;7.80;;;11.80;99.90;;;;;;4946076;28;20134;-63
2022/10/29 03:48:57;;;;;;;102.53;4.20;;;11.90;99.90;;;;;;4971983;28;20047;-64
2022/10/29 03:51:22;;;;;;;72.47;4.43;;;13.20;99.90;;;;;;4953593;28;20066;-63
2022/10/29 03:53:48;;;;;;;41.20;3.88;;;12.60;99.90;;;;;;4939053;29;20043;-63
2022/10/29 03:56:13;;;;;;;19.08;4.10;;;13.10;99.90;;;;;;4965482;28;20078;-64
2022/10/29 03:58:39;;;;;;;22.75;4.28;;;11.90;99.90;;;;;;4966523;28;20030;-64
2022/10/29 04:01:06;;;;;;;15.38;4.18;;;13.30;99.90;;;;;;4966506;28;20654;-64
2022/10/29 04:03:34;;;;;;;92.00;6.30;;;13.40;99.90;;;;;;4964739;28;20527;-64
2022/10/29 04:06:07;;;;;;;55.08;5.75;;;12.70;99.90;;;;;;4965320;28;20094;-63
2022/10/29 04:08:32;;;;;;;149.05;9.73;;;12.40;99.90;;;;;;4965698;28;20078;-63
2022/10/29 04:10:58;;;;;;;94.68;6.07;;;13.10;99.90;;;;;;4966720;28;20516;-63
2022/10/29 04:13:23;;;;;;;61.15;6.10;;;11.90;99.90;;;;;;4966669;28;20481;-64
2022/10/29 04:15:53;;;;;;;87.25;6.82;;;12.00;99.90;;;;;;4965785;28;20101;-64
2022/10/29 04:18:19;;;;;;;30.42;4.47;;;11.90;99.90;;;;;;4965335;28;20039;-64
2022/10/29 04:20:44;;;;;;;16.35;4.95;;;12.10;99.90;;;;;;4966296;28;20043;-64
2022/10/29 04:23:10;;;;;;;10.70;4.90;;;13.30;99.90;;;;;;4961618;28;20053;-64
2022/10/29 04:25:36;;;;;;;11.40;4.35;;;13.30;99.90;;;;;;4947335;28;20035;-64
2022/10/29 04:28:02;;;;;;;6.97;4.45;;;13.20;99.90;;;;;;4954949;28;20039;-63
2022/10/29 04:30:27;;;;;;;10.75;4.40;;;13.40;99.90;;;;;;4966833;28;20377;-63
2022/10/29 04:32:59;;;;;;;46.17;7.40;;;13.40;99.90;;;;;;4971406;28;20148;-63
2022/10/29 04:35:26;;;;;;;58.88;7.93;;;13.50;99.90;;;;;;4970928;28;20031;-63
2022/10/29 04:37:54;;;;;;;67.38;8.27;;;12.10;99.90;;;;;;4943065;28;20047;-63
2022/10/29 04:40:21;;;;;;;103.45;10.00;;;12.30;99.90;;;;;;4971587;28;20046;-64
2022/10/29 04:42:46;;;;;;;76.88;7.82;;;13.40;99.90;;;;;;4955203;28;20046;-63
2022/10/29 04:45:12;;;;;;;53.55;7.53;;;12.50;99.90;;;;;;4971383;28;20385;-63
2022/10/29 04:47:38;;;;;;;51.08;6.50;;;13.80;99.90;;;;;;4950973;28;20085;-64
2022/10/29 04:50:03;;;;;;;110.18;9.30;;;12.90;99.90;;;;;;4965886;28;20504;-64
2022/10/29 04:52:29;;;;;;;166.63;10.23;;;14.20;99.90;;;;;;4964110;28;20085;-64
2022/10/29 04:54:54;;;;;;;220.82;12.57;;;13.00;99.90;;;;;;4963602;28;20078;-64
2022/10/29 04:57:20;;;;;;;260.02;13.98;;;14.40;99.90;;;;;;4964947;28;20045;-65
2022/10/29 04:59:46;;;;;;;336.35;17.90;;;13.10;99.90;;;;;;4966259;28;20039;-64
2022/10/29 05:02:11;;;;;;;189.15;12.88;;;14.40;99.90;;;;;;4968583;28;20130;-64
2022/10/29 05:04:37;;;;;;;223.60;14.63;;;14.30;99.90;;;;;;4969117;28;20034;-64
2022/10/29 05:07:02;;;;;;;206.52;13.43;;;13.40;99.90;;;;;;4969514;28;20041;-64
2022/10/29 05:09:28;;;;;;;219.52;14.98;;;13.40;99.90;;;;;;4950370;28;20054;-65
2022/10/29 05:11:53;;;;;;;384.58;21.05;;;13.70;99.90;;;;;;4967745;28;20035;-65
2022/10/29 05:14:19;;;;;;;498.05;23.95;;;14.00;99.90;;;;;;4945186;28;20046;-64
2022/10/29 05:16:44;;;;;;;448.48;24.30;;;15.10;99.90;;;;;;4963136;28;20059;-64
2022/10/29 05:19:10;;;;;;;513.15;25.40;;;13.70;99.90;;;;;;4963782;28;20558;-64
2022/10/29 05:21:35;;;;;;;392.38;19.65;;;15.20;99.90;;;;;;4969253;28;20034;-64
2022/10/29 05:24:01;;;;;;;250.40;17.67;;;15.30;99.90;;;;;;4967856;28;20449;-64
2022/10/29 05:26:30;;;;;;;444.88;23.80;;;13.80;99.90;;;;;;4966236;28;20097;-66
2022/10/29 05:28:55;;;;;;;351.95;18.58;;;13.90;99.90;;;;;;4969333;28;20512;-64
2022/10/29 05:31:21;;;;;;;507.02;23.85;;;15.40;99.90;;;;;;4967919;28;20042;-66
2022/10/29 05:33:46;;;;;;;522.40;22.67;;;15.40;99.90;;;;;;4951730;28;20043;-65
2022/10/29 05:36:12;;;;;;;571.75;23.27;;;14.50;99.90;;;;;;4953449;28;20081;-65
2022/10/29 05:38:37;;;;;;;522.03;23.08;;;15.30;99.90;;;;;;4968414;28;20030;-64
2022/10/29 05:41:03;;;;;;;546.50;22.33;;;15.30;99.90;;;;;;4943670;29;20048;-64
2022/10/29 05:43:29;;;;;;;327.13;17.23;;;14.00;99.90;;;;;;4948207;28;20039;-64
2022/10/29 05:45:54;;;;;;;343.63;17.40;;;14.00;99.90;;;;;;4971198;28;20034;-64
2022/10/29 05:48:20;;;;;;;362.27;20.65;;;14.20;99.90;;;;;;4947427;28;20042;-65
2022/10/29 05:50:45;;;;;;;172.55;11.77;;;15.20;99.90;;;;;;4958384;28;20051;-65
2022/10/29 05:53:12;;;;;;;587.17;23.58;;;15.50;99.90;;;;;;4947380;28;20047;-64
2022/10/29 05:55:39;;;;;;;565.20;23.90;;;15.50;99.90;;;;;;4955228;28;20053;-65
2022/10/29 05:58:10;;;;;;;463.83;22.85;;;15.50;99.90;;;;;;4950571;28;20058;-64
2022/10/29 06:00:38;;;;;;;549.20;24.60;;;14.70;99.90;;;;;;4971387;28;20046;-64
2022/10/29 06:03:08;;;;;;;379.38;20.30;;;14.30;99.90;;;;;;4967744;28;20572;-64
2022/10/29 06:05:34;;;;;;;365.83;17.65;;;14.60;99.90;;;;;;4965117;28;20489;-65
2022/10/29 06:08:00;;;;;;;429.13;19.08;;;15.20;99.90;;;;;;4962745;28;20044;-64
2022/10/29 06:10:27;;;;;;;364.00;15.70;;;15.00;99.90;;;;;;4957937;28;20082;-66
2022/10/29 06:12:53;;;;;;;374.55;18.23;;;14.40;99.90;;;;;;4954939;28;20500;-65
2022/10/29 06:15:19;;;;;;;480.02;22.40;;;14.30;99.90;;;;;;4968300;28;20089;-64
2022/10/29 06:17:45;;;;;;;507.23;21.98;;;14.30;99.90;;;;;;4943788;29;20084;-65
2022/10/29 06:20:13;;;;;;;475.05;21.83;;;14.60;99.90;;;;;;4962287;28;20046;-64
2022/10/29 06:22:39;;;;;;;158.43;11.82;;;15.50;99.90;;;;;;4962573;28;20042;-64
2022/10/29 06:25:05;;;;;;;403.27;18.95;;;15.00;99.90;;;;;;4973406;28;20042;-65
2022/10/29 06:27:30;;;;;;;118.65;8.75;;;15.20;99.90;;;;;;4965229;28;20489;-64
2022/10/29 06:29:56;;;;;;;291.95;14.35;;;15.70;99.90;;;;;;4954577;29;20043;-64
2022/10/29 06:32:21;;;;;;;439.67;19.65;;;14.20;99.90;;;;;;4937267;29;20035;-65
2022/10/29 06:34:47;;;;;;;248.63;14.73;;;15.60;99.90;;;;;;4963802;28;20386;-65
2022/10/29 06:37:13;;;;;;;314.83;15.57;;;15.20;99.90;;;;;;4972274;28;20527;-65
2022/10/29 06:39:39;;;;;;;346.50;17.92;;;15.30;99.90;;;;;;4973440;28;20126;-65
2022/10/29 06:42:04;;;;;;;470.73;22.70;;;14.80;99.90;;;;;;4951537;29;20051;-65
2022/10/29 06:44:30;;;;;;;137.15;13.18;;;15.40;99.90;;;;;;4956183;28;20133;-66
2022/10/29 06:46:55;;;;;;;229.13;17.25;;;14.70;99.90;;;;;;4965151;28;20039;-64
2022/10/29 06:49:21;;;;;;;238.68;16.70;;;14.60;99.90;;;;;;4971596;28;20081;-64
2022/10/29 06:51:47;;;;;;;282.42;18.67;;;14.50;99.90;;;;;;4956467;28;20047;-64
2022/10/29 06:54:12;;;;;;;215.48;18.10;;;14.30;99.90;;;;;;4947866;29;20083;-65
2022/10/29 06:56:38;;;;;;;323.50;19.90;;;14.80;99.90;;;;;;4959412;28;20051;-64
2022/10/29 06:59:04;;;;;;;315.30;19.95;;;15.70;99.90;;;;;;4966187;28;20067;-65
2022/10/29 07:01:31;;;;;;;274.10;17.70;;;15.10;99.90;;;;;;4936916;29;20058;-65
2022/10/29 07:03:58;;;;;;;86.78;10.63;;;14.40;99.90;;;;;;4957820;28;20039;-65
2022/10/29 07:06:24;;;;;;;131.38;12.73;;;15.90;99.90;;;;;;4960875;28;20527;-64
2022/10/29 07:08:49;;;;;;;193.25;15.27;;;14.60;99.90;;;;;;4937487;28;20130;-64
2022/10/29 07:11:15;;;;;;;188.40;15.27;;;15.50;99.90;;;;;;4965272;28;20074;-64
2022/10/29 07:13:41;;;;;;;393.60;22.15;;;14.90;99.90;;;;;;4966019;28;20031;-65
2022/10/29 07:16:07;;;;;;;357.35;21.08;;;16.00;99.90;;;;;;4972935;28;20074;-65
2022/10/29 07:18:33;;;;;;;490.83;26.13;;;15.00;99.90;;;;;;4965507;28;20043;-65
2022/10/29 07:21:00;;;;;;;458.67;26.00;;;15.20;99.90;;;;;;4951256;28;20055;-65
2022/10/29 07:23:25;;;;;;;349.80;22.27;;;15.90;99.90;;;;;;4943395;28;20075;-65
2022/10/29 07:25:52;;;;;;;204.82;18.95;;;15.00;99.90;;;;;;4955461;28;20118;-65
2022/10/29 07:28:24;;;;;;;204.45;19.02;;;14.80;99.90;;;;;;4961038;28;20031;-65
2022/10/29 07:30:50;;;;;;;268.02;21.55;;;14.90;99.90;;;;;;4949584;28;20046;-65
2022/10/29 07:33:16;;;;;;;289.40;24.60;;;14.90;99.90;;;;;;4965229;28;20090;-64
2022/10/29 07:35:43;;;;;;;374.55;25.75;;;16.40;99.90;;;;;;4952990;28;20126;-65
2022/10/29 07:38:10;;;;;;;324.58;27.05;;;15.00;99.90;;;;;;4947607;28;20126;-65
2022/10/29 07:40:37;;;;;;;396.95;28.98;;;15.10;99.90;;;;;;4955643;28;20054;-65
2022/10/29 07:43:02;;;;;;;263.27;26.20;;;15.90;99.90;;;;;;4941975;28;20610;-65
2022/10/29 07:45:28;;;;;;;268.73;25.35;;;15.00;99.90;;;;;;4967725;28;20043;-66
2022/10/29 07:47:58;;;;;;;219.63;25.20;;;16.30;99.90;;;;;;4946450;28;20502;-65
2022/10/29 07:50:24;;;;;;;163.10;22.67;;;15.80;99.90;;;;;;4963939;28;20034;-65
2022/10/29 07:52:50;;;;;;;69.25;20.05;;;15.40;99.90;;;;;;4965674;28;20043;-65
2022/10/29 07:55:15;;;;;;;132.20;26.95;;;16.50;99.90;;;;;;4950745;28;20053;-66
2022/10/29 07:57:41;;;;;;;171.35;29.13;;;15.10;99.90;;;;;;4952710;28;20047;-65
2022/10/29 08:00:07;;;;;;;167.45;29.95;;;15.70;99.90;;;;;;4954979;28;20035;-66
2022/10/29 08:02:32;;;;;;;172.13;28.98;;;16.40;99.90;;;;;;4954011;28;20119;-65
2022/10/29 08:04:58;;;;;;;119.10;27.45;;;15.40;99.90;;;;;;4949828;28;20078;-65
2022/10/29 08:07:24;;;;;;;87.07;23.85;;;15.50;99.90;;;;;;4964367;28;20039;-65
2022/10/29 08:09:49;;;;;;;70.90;22.65;;;16.10;99.90;;;;;;4969789;28;20047;-65
2022/10/29 08:12:15;;;;;;;62.85;21.52;;;15.40;99.90;;;;;;4943710;28;20549;-65
2022/10/29 08:14:40;;;;;;;75.00;24.88;;;15.50;99.90;;;;;;4966079;28;20042;-64
2022/10/29 08:17:06;;;;;;;67.63;22.13;;;16.70;99.90;;;;;;4963540;28;20824;-64
2022/10/29 08:19:32;;;;;;;55.28;20.33;;;16.60;99.90;;;;;;4962798;28;20043;-65
2022/10/29 08:21:58;;;;;;;51.75;20.95;;;15.20;99.90;;;;;;4949955;28;20043;-64
2022/10/29 08:24:23;;;;;;;63.30;20.30;;;15.20;99.90;;;;;;4945673;28;20043;-64
2022/10/29 08:26:50;;;;;;;66.93;20.80;;;15.50;99.90;;;;;;4966553;28;20043;-66
2022/10/29 08:29:16;;;;;;;61.22;20.38;;;15.40;99.90;;;;;;4940918;28;20043;-64
2022/10/29 08:31:41;;;;;;;53.30;19.02;;;15.30;99.90;;;;;;4947618;28;20366;-64
2022/10/29 08:34:07;;;;;;;45.75;18.35;;;15.40;99.90;;;;;;4961162;28;20039;-64
2022/10/29 08:36:32;;;;;;;46.55;18.50;;;16.90;99.90;;;;;;4947310;28;20061;-64
2022/10/29 08:38:58;;;;;;;50.63;20.60;;;15.50;99.90;;;;;;4948424;28;20051;-66
2022/10/29 08:41:37;;;;;;;73.15;22.67;;;15.60;99.90;;;;;;4962063;28;20410;-65
2022/10/29 08:44:39;;;;;;;51.35;20.10;;;16.70;99.90;;;;;;4949805;28;20735;-64
2022/10/29 08:47:14;;;;;;;65.22;22.17;;;17.00;99.90;;;;;;4958871;28;20142;-65
2022/10/29 08:50:05;;;;;;;66.70;21.70;;;15.40;99.90;;;;;;4974168;28;20381;-64
2022/10/29 08:52:35;;;;;;;80.65;23.40;;;16.60;99.90;;;;;;4954490;28;20106;-65
2022/10/29 08:55:19;;;;;;;65.10;22.73;;;15.50;99.90;;;;;;4953264;28;20050;-64
2022/10/29 08:58:17;;;;;;;51.50;21.25;;;15.40;99.90;;;;;;4953709;28;20050;-64
2022/10/29 09:00:43;;;;;;;40.80;18.55;;;16.00;99.90;;;;;;4924145;28;20047;-65
2022/10/29 09:03:11;;;;;;;48.20;19.10;;;16.00;99.90;;;;;;4940875;28;20491;-63
2022/10/29 09:05:48;;;;;;;51.75;19.75;;;17.20;99.90;;;;;;4965448;28;20047;-65
2022/10/29 09:08:41;;;;;;;48.50;16.65;;;17.10;99.90;;;;;;4964656;28;20062;-64
2022/10/29 09:11:26;;;;;;;45.08;18.60;;;17.00;99.90;;;;;;4945428;28;20055;-65
2022/10/29 09:14:06;;;;;;;56.53;19.17;;;16.50;99.90;;;;;;4966160;28;20422;-66
2022/10/29 09:16:56;;;;;;;47.85;19.40;;;17.20;99.90;;;;;;4947240;28;20061;-64
2022/10/29 09:19:36;;;;;;;44.70;19.77;;;16.90;99.90;;;;;;4961317;28;20110;-65
2022/10/29 09:22:19;;;;;;;50.78;20.80;;;15.50;99.90;;;;;;4951637;28;20031;-64
2022/10/29 09:25:14;;;;;;;41.55;18.55;;;15.70;99.90;;;;;;4941027;28;20039;-64
2022/10/29 09:28:05;;;;;;;42.60;17.38;;;17.40;99.90;;;;;;4939774;28;20058;-64
2022/10/29 09:30:42;;;;;;;38.80;17.95;;;16.10;99.90;;;;;;4954116;28;20047;-65
2022/10/29 09:33:17;;;;;;;53.92;21.02;;;15.60;99.90;;;;;;4965453;28;20043;-64
2022/10/29 09:35:47;;;;;;;47.53;21.55;;;16.00;99.90;;;;;;4959527;28;20118;-65
2022/10/29 09:38:17;;;;;;;42.38;20.20;;;15.80;99.90;;;;;;4967510;28;20429;-65
2022/10/29 09:40:43;;;;;;;48.53;21.98;;;16.20;99.90;;;;;;4942942;28;20051;-65
2022/10/29 09:43:26;;;;;;;39.35;18.27;;;17.10;99.90;;;;;;4950462;28;20089;-64
2022/10/29 09:46:21;;;;;;;36.75;17.50;;;17.00;99.90;;;;;;4946904;28;20058;-65
2022/10/29 09:48:52;;;;;;;41.25;19.05;;;16.00;99.90;;;;;;4943787;28;20184;-65
2022/10/29 09:51:41;;;;;;;36.40;17.52;;;16.90;99.90;;;;;;4958237;28;20389;-65
2022/10/29 09:54:07;;;;;;;39.22;19.25;;;16.10;99.90;;;;;;4941154;28;20058;-65
2022/10/29 09:56:32;;;;;;;41.13;18.92;;;16.80;99.90;;;;;;4971434;28;20035;-65
2022/10/29 09:59:42;;;;;;;43.05;17.88;;;17.30;99.90;;;;;;4954659;28;20492;-65
2022/10/29 10:02:26;;;;;;;43.70;16.52;;;17.80;99.90;;;;;;4939339;28;20403;-65
2022/10/29 10:04:55;;;;;;;43.50;18.02;;;16.50;99.90;;;;;;4973875;28;20039;-65
2022/10/29 10:07:21;;;;;;;49.42;17.05;;;16.20;99.90;;;;;;4970987;28;20038;-65
2022/10/29 10:09:53;;;;;;;35.33;17.05;;;16.40;99.90;;;;;;4955690;28;20041;-67
2022/10/29 10:12:22;;;;;;;37.17;17.75;;;16.90;99.90;;;;;;4945539;29;20181;-65
2022/10/29 10:14:48;;;;;;;45.75;18.88;;;18.60;99.90;;;;;;4960460;28;20054;-65
2022/10/29 10:17:14;;;;;;;37.72;16.70;;;17.20;99.90;;;;;;4967431;28;21018;-65
2022/10/29 10:19:45;;;;;;;37.47;16.02;;;16.30;99.90;;;;;;4952012;28;20046;-66
2022/10/29 10:22:23;;;;;;;40.33;15.70;;;18.70;99.90;;;;;;4950888;28;20049;-65
2022/10/29 10:24:49;;;;;;;36.47;16.17;;;18.40;99.90;;;;;;4944784;28;20593;-65
2022/10/29 10:27:17;;;;;;;44.42;17.00;;;17.80;99.90;;;;;;4940118;29;20077;-66
2022/10/29 10:30:03;;;;;;;33.80;16.38;;;18.60;99.90;;;;;;4959951;28;20050;-68
2022/10/29 10:32:29;;;;;;;36.63;16.20;;;16.70;99.90;;;;;;4959875;28;20042;-65
2022/10/29 10:34:54;;;;;;;41.80;17.05;;;18.80;99.90;;;;;;4953448;28;20058;-65
2022/10/29 10:37:20;;;;;;;36.80;14.45;;;16.60;99.90;;;;;;4954899;28;20047;-66
2022/10/29 10:39:51;;;;;;;35.17;15.07;;;16.80;99.90;;;;;;4943382;28;20035;-65
2022/10/29 10:42:17;;;;;;;33.63;13.95;;;18.80;99.90;;;;;;4953447;28;20113;-65
2022/10/29 10:44:48;;;;;;;33.28;12.20;;;18.90;99.90;;;;;;4963737;28;20726;-65
2022/10/29 10:47:17;;;;;;;30.73;13.40;;;19.00;99.90;;;;;;4967453;28;20042;-65
2022/10/29 10:49:43;;;;;;;27.25;12.55;;;18.10;99.90;;;;;;4967400;28;20038;-65
2022/10/29 10:52:20;;;;;;;33.10;11.85;;;17.90;99.90;;;;;;4955512;28;20599;-66
2022/10/29 10:54:58;;;;;;;36.67;13.05;;;18.30;99.90;;;;;;4955503;28;20047;-65
2022/10/29 10:57:27;;;;;;;27.83;11.93;;;19.40;99.90;;;;;;4963553;28;20488;-65
2022/10/29 10:59:58;;;;;;;25.88;11.68;;;17.60;99.90;;;;;;4945690;28;20039;-66
2022/10/29 11:02:41;;;;;;;22.55;9.70;;;18.90;99.90;;;;;;4944908;28;20042;-65
2022/10/29 11:05:20;;;;;;;19.25;8.85;;;17.90;99.90;;;;;;4963449;28;20047;-65
2022/10/29 11:08:09;;;;;;;20.70;9.63;;;17.50;99.90;;;;;;4973518;28;20042;-65
2022/10/29 11:10:59;;;;;;;18.90;10.07;;;19.20;99.90;;;;;;4970071;28;20035;-65
2022/10/29 11:13:28;;;;;;;20.42;9.30;;;19.60;99.90;;;;;;4966087;28;20078;-66
2022/10/29 11:16:15;;;;;;;19.08;9.05;;;19.40;99.90;;;;;;4964035;28;20505;-65
2022/10/29 11:18:50;;;;;;;15.75;9.27;;;19.50;99.90;;;;;;4952939;28;20043;-65
2022/10/29 11:21:42;;;;;;;25.83;8.65;;;19.70;99.90;;;;;;4958017;28;20412;-64
2022/10/29 11:24:16;;;;;;;26.08;9.00;;;19.20;99.90;;;;;;4933633;28;20050;-66
2022/10/29 11:27:03;;;;;;;21.58;9.85;;;18.80;99.90;;;;;;4955867;28;20039;-62
2022/10/29 11:29:38;;;;;;;21.38;9.75;;;19.90;99.90;;;;;;4959422;28;20397;-64
2022/10/29 11:32:16;;;;;;;25.73;10.77;;;18.50;99.90;;;;;;4966333;28;20085;-63
2022/10/29 11:35:19;;;;;;;18.20;10.05;;;20.20;99.90;;;;;;4965740;28;20071;-63
2022/10/29 11:38:15;;;;;;;25.00;11.55;;;18.80;99.90;;;;;;4949527;28;20425;-63
2022/10/29 11:40:46;;;;;;;25.05;12.75;;;20.30;99.90;;;;;;4935176;28;20050;-63
2022/10/29 11:43:14;;;;;;;26.00;13.02;;;20.40;99.90;;;;;;4970262;28;20086;-63
2022/10/29 11:45:59;;;;;;;26.35;11.63;;;19.60;99.90;;;;;;4966889;28;20050;-67
2022/10/29 11:48:37;;;;;;;23.67;12.13;;;19.90;99.90;;;;;;4945690;28;20511;-66
2022/10/29 11:51:34;;;;;;;27.60;13.35;;;19.30;99.90;;;;;;4937636;28;20047;-67
2022/10/29 11:54:06;;;;;;;33.15;13.90;;;18.60;99.90;;;;;;4959659;28;20054;-66
2022/10/29 11:56:47;;;;;;;29.83;15.43;;;18.90;99.90;;;;;;4941348;28;20050;-67
2022/10/29 11:59:16;;;;;;;37.90;16.02;;;19.40;99.90;;;;;;4959421;28;20031;-66
2022/10/29 12:02:09;;;;;;;29.40;15.48;;;20.80;99.90;;;;;;4966742;28;20046;-66
2022/10/29 12:04:39;;;;;;;35.95;16.20;;;20.80;99.90;;;;;;4944751;28;20191;-66
2022/10/29 12:07:23;;;;;;;36.20;15.73;;;19.90;99.90;;;;;;4964330;28;20398;-67
2022/10/29 12:10:04;;;;;;;29.52;13.07;;;19.60;99.90;;;;;;4971007;28;20393;-66
2022/10/29 12:12:42;;;;;;;42.10;16.80;;;19.50;99.90;;;;;;4946856;28;20149;-64
2022/10/29 12:15:27;;;;;;;42.05;15.82;;;19.50;99.90;;;;;;4947682;28;20418;-64
2022/10/29 12:18:31;;;;;;;32.03;14.93;;;20.40;99.90;;;;;;4963238;28;20412;-64
2022/10/29 12:21:16;;;;;;;33.05;15.68;;;20.90;99.90;;;;;;4953829;28;20118;-64
2022/10/29 12:24:08;;;;;;;28.38;14.88;;;19.50;99.90;;;;;;4960425;28;20047;-64
2022/10/29 12:26:47;;;;;;;27.13;13.60;;;20.90;99.90;;;;;;4963131;28;20043;-66
2022/10/29 12:29:19;;;;;;;28.00;13.93;;;20.20;99.90;;;;;;4966036;28;20070;-64
2022/10/29 12:31:49;;;;;;;29.50;14.20;;;20.80;99.90;;;;;;4944973;28;20123;-65
2022/10/29 12:34:27;;;;;;;28.33;13.48;;;20.80;99.90;;;;;;4966341;28;20043;-64
2022/10/29 12:36:58;;;;;;;25.40;13.38;;;19.30;99.90;;;;;;4964208;28;20039;-64
2022/10/29 12:39:33;;;;;;;32.17;14.15;;;20.80;99.90;;;;;;4941689;28;20120;-63
2022/10/29 12:42:11;;;;;;;28.27;14.48;;;19.90;99.90;;;;;;4944459;28;20121;-64
2022/10/29 12:44:54;;;;;;;30.92;15.68;;;19.30;99.90;;;;;;4960998;28;20065;-64
2022/10/29 12:47:31;;;;;;;30.08;14.23;;;19.70;99.90;;;;;;4962168;28;20452;-64